Time;durP1;ratioP1;P1;durP2;ratioP2;P2;SDS_P1;SDS_P2;PMS_P1;PMS_P2;Temp;Humidity;BMP_temperature;BMP_pressure;BME280_temperature;BME280_humidity;BME280_pressure;Samples;Min_cycle;Max_cycle;Signal;HPM_P1;HPM_P2
2022/01/23 00:00:20;;;;;;;18.35;9.23;;;5.50;99.90;;;;;;5037749;28;20532;-81
2022/01/23 00:02:50;;;;;;;18.55;9.13;;;5.50;99.90;;;;;;5023307;28;20063;-81
2022/01/23 00:05:19;;;;;;;20.10;9.73;;;5.50;99.90;;;;;;5020794;28;20068;-81
2022/01/23 00:07:46;;;;;;;15.85;8.98;;;5.50;99.90;;;;;;5004958;28;20087;-81
2022/01/23 00:10:12;;;;;;;14.85;8.00;;;5.50;99.90;;;;;;5037253;28;20063;-81
2022/01/23 00:12:46;;;;;;;16.10;8.23;;;5.50;99.90;;;;;;5020246;28;20098;-81
2022/01/23 00:17:56;;;;;;;19.63;9.00;;;5.50;99.90;;;;;;5023230;28;20045;-81
2022/01/23 00:20:23;;;;;;;17.17;8.98;;;5.50;99.90;;;;;;5037094;28;20144;-81
2022/01/23 00:22:57;;;;;;;13.63;8.48;;;5.50;99.90;;;;;;5020517;28;20366;-81
2022/01/23 00:30:54;;;;;;;16.08;8.40;;;5.60;99.90;;;;;;5053412;28;20500;-82
2022/01/23 00:33:22;;;;;;;19.00;8.63;;;5.50;99.90;;;;;;5020355;28;20037;-82
2022/01/23 00:35:48;;;;;;;17.73;8.07;;;5.40;99.90;;;;;;5019894;28;20048;-82
2022/01/23 00:38:14;;;;;;;19.38;8.75;;;5.50;99.90;;;;;;5020319;28;20045;-82
2022/01/23 00:40:42;;;;;;;17.83;8.00;;;5.50;99.90;;;;;;5035765;28;20048;-82
2022/01/23 00:43:42;;;;;;;17.15;8.45;;;5.50;99.90;;;;;;5003772;28;20041;-82
2022/01/23 00:49:03;;;;;;;16.40;8.18;;;5.50;99.90;;;;;;5023155;28;20040;-82
2022/01/23 00:51:35;;;;;;;17.38;8.18;;;5.50;99.90;;;;;;5022218;28;20037;-82
2022/01/23 00:54:03;;;;;;;;;;;5.50;99.90;;;;;;5004574;28;20033;-82
2022/01/23 00:56:28;;;;;;;15.90;8.25;;;5.50;99.90;;;;;;5035623;28;20348;-82
2022/01/23 00:58:54;;;;;;;19.80;8.82;;;5.40;99.90;;;;;;5036344;28;20033;-82
2022/01/23 01:01:20;;;;;;;18.88;8.60;;;5.40;99.90;;;;;;5035914;28;20048;-82
2022/01/23 01:03:47;;;;;;;18.08;9.35;;;5.50;99.90;;;;;;5020015;28;20589;-82
2022/01/23 01:06:13;;;;;;;18.40;8.77;;;5.50;99.90;;;;;;5003086;28;20045;-82
2022/01/23 01:08:40;;;;;;;18.95;8.90;;;5.50;99.90;;;;;;5019393;28;20037;-82
2022/01/23 01:37:46;;;;;;;22.70;9.60;;;5.30;99.90;;;;;;5015948;28;20056;-81
2022/01/23 01:40:11;;;;;;;21.15;9.38;;;5.40;99.90;;;;;;4999377;28;20045;-81
2022/01/23 01:42:37;;;;;;;18.25;9.43;;;5.30;99.90;;;;;;5015058;28;20045;-81
2022/01/23 01:45:03;;;;;;;18.58;10.07;;;5.30;99.90;;;;;;5015288;28;20497;-81
2022/01/23 01:47:29;;;;;;;21.48;10.45;;;5.30;99.90;;;;;;4999281;28;20037;-81
2022/01/23 01:49:55;;;;;;;17.15;9.70;;;5.30;99.90;;;;;;4999719;28;20041;-81
2022/01/23 01:52:20;;;;;;;19.02;10.02;;;5.30;99.90;;;;;;4999323;28;20030;-81
2022/01/23 01:54:48;;;;;;;22.83;10.98;;;5.30;99.90;;;;;;5015485;28;20041;-81
2022/01/23 01:57:15;;;;;;;20.38;10.98;;;5.30;99.90;;;;;;4998311;28;20045;-81
2022/01/23 02:10:25;;;;;;;22.63;10.13;;;5.40;99.90;;;;;;5014739;28;20049;-81
2022/01/23 02:13:09;;;;;;;19.63;9.55;;;5.40;99.90;;;;;;4999659;28;20091;-81
2022/01/23 02:24:36;;;;;;;18.98;9.35;;;5.40;99.90;;;;;;5025446;28;20050;-81
2022/01/23 02:56:56;;;;;;;19.40;9.82;;;5.30;99.90;;;;;;4986631;28;20046;-81
2022/01/23 02:59:40;;;;;;;22.05;10.63;;;5.30;99.90;;;;;;5031751;28;20052;-81
2022/01/23 03:04:53;;;;;;;18.63;10.00;;;5.40;99.90;;;;;;5000873;28;20119;-81
2022/01/23 03:10:17;;;;;;;20.98;10.65;;;5.40;99.90;;;;;;5004259;28;20046;-82
2022/01/23 03:29:00;;;;;;;18.92;9.45;;;5.40;99.90;;;;;;5034886;28;20099;-82
2022/01/23 03:31:27;;;;;;;17.95;9.35;;;5.30;99.90;;;;;;5034307;28;20042;-82
2022/01/23 03:33:53;;;;;;;17.17;10.15;;;5.30;99.90;;;;;;5018780;28;20041;-82
2022/01/23 03:36:20;;;;;;;17.15;9.43;;;5.80;99.90;;;;;;4985564;28;20041;-82
2022/01/23 03:38:46;;;;;;;18.20;9.70;;;5.30;99.90;;;;;;5018405;28;20504;-82
2022/01/23 03:41:12;;;;;;;17.33;9.57;;;5.30;99.90;;;;;;5033434;28;20041;-82
2022/01/23 03:43:40;;;;;;;19.15;9.65;;;5.30;99.90;;;;;;5034374;28;20037;-82
2022/01/23 03:51:20;;;;;;;19.67;10.35;;;5.30;99.90;;;;;;5001204;28;20049;-82
2022/01/23 03:53:46;;;;;;;21.95;10.48;;;5.30;99.90;;;;;;4985118;28;20128;-82
2022/01/23 03:56:14;;;;;;;18.10;10.57;;;5.30;99.90;;;;;;4984441;28;20041;-82
2022/01/23 03:58:40;;;;;;;19.48;10.00;;;5.30;99.90;;;;;;4995626;28;20044;-82
2022/01/23 04:01:05;;;;;;;19.88;10.20;;;5.30;99.90;;;;;;5020501;28;20132;-82
2022/01/23 04:03:33;;;;;;;22.95;10.77;;;5.30;99.90;;;;;;5004755;28;20492;-82
2022/01/23 04:05:59;;;;;;;19.50;9.65;;;5.30;99.90;;;;;;5020683;28;20045;-82
2022/01/23 04:08:25;;;;;;;22.02;10.77;;;5.30;99.90;;;;;;5004401;28;20041;-82
2022/01/23 04:10:51;;;;;;;25.75;11.95;;;5.30;99.90;;;;;;5036242;28;20041;-82
2022/01/23 04:13:41;;;;;;;18.73;9.98;;;5.30;99.90;;;;;;5020796;28;20130;-82
2022/01/23 04:33:13;;;;;;;27.55;12.80;;;5.30;99.90;;;;;;5022966;28;20044;-82
2022/01/23 04:59:49;;;;;;;25.52;12.98;;;5.40;99.90;;;;;;5022302;28;20052;-82
2022/01/23 05:02:54;;;;;;;26.45;12.60;;;5.40;99.90;;;;;;5003711;28;20103;-82
2022/01/23 05:05:04;;;;;;;23.25;12.63;;;5.40;99.90;;;;;;5023076;28;20489;-82
2022/01/23 05:07:30;;;;;;;21.00;11.60;;;5.40;99.90;;;;;;5020088;28;20506;-82
2022/01/23 05:09:56;;;;;;;23.98;12.40;;;5.50;99.90;;;;;;5035826;28;20129;-82
2022/01/23 05:12:26;;;;;;;21.90;12.60;;;5.40;99.90;;;;;;5035063;28;20033;-82
2022/01/23 05:14:52;;;;;;;26.75;12.90;;;5.40;99.90;;;;;;5020146;28;20086;-82
2022/01/23 05:17:18;;;;;;;25.33;12.90;;;5.40;99.90;;;;;;5019564;28;20099;-82
2022/01/23 05:19:45;;;;;;;27.73;13.45;;;5.40;99.90;;;;;;5003260;28;20041;-82
2022/01/23 05:24:45;;;;;;;31.08;14.52;;;5.30;99.90;;;;;;5036052;28;20484;-82
2022/01/23 05:27:11;;;;;;;25.80;13.60;;;5.40;99.90;;;;;;5018486;28;20033;-82
2022/01/23 05:29:38;;;;;;;26.15;13.57;;;5.30;99.90;;;;;;5002962;28;20474;-82
2022/01/23 05:32:04;;;;;;;23.48;13.07;;;5.30;99.90;;;;;;5035348;28;20182;-82
2022/01/23 05:34:31;;;;;;;27.52;14.57;;;5.30;99.90;;;;;;5003171;28;20060;-82
2022/01/23 05:36:57;;;;;;;30.08;15.15;;;5.40;99.90;;;;;;5035631;28;20104;-82
2022/01/23 05:39:25;;;;;;;25.63;13.98;;;5.40;99.90;;;;;;5019466;28;20045;-81
2022/01/23 05:41:57;;;;;;;29.55;14.38;;;5.40;99.90;;;;;;5018762;28;20047;-81
2022/01/23 05:44:23;;;;;;;;;;;5.40;99.90;;;;;;5020621;28;20120;-81
2022/01/23 05:46:49;;;;;;;25.65;13.68;;;5.30;99.90;;;;;;5018767;28;20011;-81
2022/01/23 05:49:15;;;;;;;26.67;14.07;;;5.40;99.90;;;;;;5019276;28;20510;-81
2022/01/23 05:51:41;;;;;;;30.05;15.27;;;5.30;99.90;;;;;;5019187;28;20051;-82
2022/01/23 05:54:07;;;;;;;26.10;13.93;;;5.30;99.90;;;;;;5002816;28;20083;-82
2022/01/23 05:56:32;;;;;;;26.67;13.68;;;5.30;99.90;;;;;;4985479;28;20033;-82
2022/01/23 05:58:58;;;;;;;24.63;12.95;;;5.30;99.90;;;;;;5019226;28;20090;-82
2022/01/23 06:01:24;;;;;;;30.63;14.32;;;5.30;99.90;;;;;;5002279;28;20087;-82
2022/01/23 06:03:50;;;;;;;26.08;13.27;;;5.30;99.90;;;;;;4986493;28;20041;-82
2022/01/23 06:06:15;;;;;;;24.95;13.77;;;5.30;99.90;;;;;;4986131;28;20044;-82
2022/01/23 06:08:42;;;;;;;23.75;13.30;;;5.30;99.90;;;;;;5035686;28;20095;-82
2022/01/23 06:11:08;;;;;;;25.70;13.75;;;5.30;99.90;;;;;;5017994;28;20060;-82
2022/01/23 06:13:34;;;;;;;20.50;12.07;;;5.30;99.90;;;;;;5002066;28;20037;-82
2022/01/23 06:16:00;;;;;;;23.23;12.90;;;5.30;99.90;;;;;;5018434;28;20126;-82
2022/01/23 06:18:26;;;;;;;23.65;12.95;;;5.30;99.90;;;;;;5018984;28;20564;-82
2022/01/23 06:20:52;;;;;;;24.33;12.63;;;5.30;99.90;;;;;;5018704;28;20072;-82
2022/01/23 06:23:18;;;;;;;23.15;12.30;;;5.30;99.90;;;;;;5035256;28;20041;-82
2022/01/23 06:25:46;;;;;;;19.30;11.77;;;5.30;99.90;;;;;;5001273;28;20049;-82
2022/01/23 06:28:19;;;;;;;23.65;11.98;;;5.30;99.90;;;;;;5019137;28;20064;-82
2022/01/23 06:30:45;;;;;;;18.52;11.43;;;5.30;99.90;;;;;;5018523;28;20084;-82
2022/01/23 06:33:11;;;;;;;21.15;11.65;;;5.30;99.90;;;;;;4986344;28;20515;-82
2022/01/23 06:35:37;;;;;;;22.48;12.10;;;5.30;99.90;;;;;;4985724;28;20041;-82
2022/01/23 06:38:03;;;;;;;18.92;11.45;;;5.30;99.90;;;;;;4986279;28;20560;-82
2022/01/23 06:40:29;;;;;;;20.20;12.35;;;5.40;99.90;;;;;;5017800;28;20041;-82
2022/01/23 06:42:55;;;;;;;21.33;12.70;;;5.30;99.90;;;;;;5002392;28;20071;-82
2022/01/23 06:45:21;;;;;;;22.85;12.30;;;5.30;99.90;;;;;;5004694;28;20094;-82
2022/01/23 06:47:46;;;;;;;19.88;12.50;;;5.30;99.90;;;;;;5006095;28;20045;-82
2022/01/23 06:50:12;;;;;;;20.25;12.25;;;5.30;99.90;;;;;;5005744;28;20124;-82
2022/01/23 06:52:38;;;;;;;24.35;11.70;;;5.40;99.90;;;;;;4989777;28;20041;-82
2022/01/23 06:55:04;;;;;;;21.30;12.02;;;5.30;99.90;;;;;;5005837;28;20183;-82
2022/01/23 06:57:29;;;;;;;20.05;12.07;;;5.30;99.90;;;;;;5037832;28;20044;-82
2022/01/23 06:59:55;;;;;;;19.92;11.95;;;5.30;99.90;;;;;;5021904;28;20044;-82
2022/01/23 07:02:22;;;;;;;27.48;18.00;;;5.30;99.90;;;;;;5005675;28;20087;-82
2022/01/23 07:04:48;;;;;;;25.05;15.10;;;5.20;99.90;;;;;;5022045;28;20049;-82
2022/01/23 07:07:14;;;;;;;22.23;12.90;;;5.30;99.90;;;;;;4989480;28;20037;-82
2022/01/23 07:09:39;;;;;;;19.80;11.70;;;5.20;99.90;;;;;;5021941;28;20489;-82
2022/01/23 07:12:06;;;;;;;21.80;12.65;;;5.20;99.90;;;;;;4988403;28;20100;-82
2022/01/23 07:14:31;;;;;;;21.58;12.45;;;5.20;99.90;;;;;;5005486;28;20037;-82
2022/01/23 07:16:57;;;;;;;21.10;12.07;;;5.20;99.90;;;;;;4989001;28;20127;-82
2022/01/23 07:19:23;;;;;;;20.75;11.63;;;5.20;99.90;;;;;;5005237;28;20044;-82
2022/01/23 07:21:48;;;;;;;21.85;11.70;;;5.60;99.90;;;;;;5021652;28;20045;-82
2022/01/23 07:24:14;;;;;;;21.63;12.23;;;5.20;99.90;;;;;;5021494;28;20120;-82
2022/01/23 07:26:40;;;;;;;20.15;12.18;;;5.20;99.90;;;;;;4988025;28;20067;-82
2022/01/23 07:29:07;;;;;;;22.38;11.73;;;5.20;99.90;;;;;;5021663;28;20087;-82
2022/01/23 07:34:04;;;;;;;20.67;11.85;;;5.30;99.90;;;;;;5021693;28;20052;-82
2022/01/23 07:36:30;;;;;;;21.35;11.68;;;5.30;99.90;;;;;;5037854;28;20041;-82
2022/01/23 07:38:55;;;;;;;23.90;12.52;;;5.30;99.90;;;;;;5021463;28;20045;-82
2022/01/23 07:41:22;;;;;;;21.25;11.63;;;5.30;99.90;;;;;;5004141;28;20044;-82
2022/01/23 07:43:48;;;;;;;18.17;11.32;;;5.30;99.90;;;;;;5021510;28;20051;-82
2022/01/23 07:46:14;;;;;;;20.58;11.73;;;5.30;99.90;;;;;;5021123;28;20041;-82
2022/01/23 07:48:40;;;;;;;23.17;11.95;;;5.30;99.90;;;;;;5021351;28;20037;-82
2022/01/23 07:51:06;;;;;;;19.33;10.80;;;5.40;99.90;;;;;;5020955;28;20041;-82
2022/01/23 07:53:32;;;;;;;19.40;11.18;;;5.30;99.90;;;;;;5037539;28;20033;-82
2022/01/23 07:55:57;;;;;;;20.35;11.43;;;5.30;99.90;;;;;;5018895;28;20489;-82
2022/01/23 07:58:23;;;;;;;20.08;11.38;;;5.30;99.90;;;;;;5020967;28;20043;-82
2022/01/23 08:00:49;;;;;;;20.55;11.35;;;5.40;99.90;;;;;;5004430;28;20048;-82
2022/01/23 08:03:15;;;;;;;18.88;10.98;;;5.40;99.90;;;;;;5020829;28;20057;-82
2022/01/23 08:05:43;;;;;;;23.00;11.43;;;5.40;99.90;;;;;;5020542;28;20049;-82
2022/01/23 08:08:09;;;;;;;22.83;11.73;;;5.40;99.90;;;;;;5021089;28;20098;-82
2022/01/23 08:10:35;;;;;;;19.70;10.45;;;5.40;99.90;;;;;;5003826;28;20160;-82
2022/01/23 08:13:03;;;;;;;20.42;10.95;;;5.40;99.90;;;;;;5037122;28;20033;-82
2022/01/23 08:15:30;;;;;;;20.20;11.63;;;5.40;99.90;;;;;;5020387;28;20041;-82
2022/01/23 08:18:03;;;;;;;22.83;11.07;;;5.50;99.90;;;;;;5037197;28;20131;-82
2022/01/23 08:20:29;;;;;;;22.00;11.57;;;5.40;99.90;;;;;;5036833;28;20044;-81
2022/01/23 08:22:57;;;;;;;18.52;10.90;;;5.50;99.90;;;;;;5016888;28;20038;-81
2022/01/23 08:25:23;;;;;;;21.70;12.02;;;5.50;99.90;;;;;;4999796;28;20543;-81
2022/01/23 08:27:49;;;;;;;21.30;12.23;;;5.50;99.90;;;;;;5002877;28;20037;-81
2022/01/23 08:30:15;;;;;;;20.85;12.43;;;5.50;99.90;;;;;;5024066;28;20475;-82
2022/01/23 08:32:40;;;;;;;18.52;11.35;;;5.50;99.90;;;;;;5000467;28;20508;-82
2022/01/23 08:35:06;;;;;;;19.02;11.00;;;5.60;99.90;;;;;;5000239;28;20408;-82
2022/01/23 08:37:32;;;;;;;17.73;10.40;;;5.60;99.90;;;;;;5015987;28;20131;-82
2022/01/23 08:39:58;;;;;;;19.27;10.55;;;5.60;99.90;;;;;;5018811;28;20041;-82
2022/01/23 08:42:24;;;;;;;18.00;9.43;;;5.60;99.90;;;;;;5035190;28;20052;-82
2022/01/23 08:44:50;;;;;;;16.55;9.70;;;5.60;99.90;;;;;;5016691;28;20064;-82
2022/01/23 08:47:17;;;;;;;14.90;9.68;;;5.70;99.90;;;;;;5035522;28;20043;-82
2022/01/23 08:49:46;;;;;;;14.00;9.25;;;5.70;99.90;;;;;;5019338;28;20040;-82
2022/01/23 08:52:16;;;;;;;16.38;9.65;;;5.70;99.90;;;;;;5019328;28;20405;-82
2022/01/23 08:54:43;;;;;;;14.82;8.90;;;5.70;99.90;;;;;;5019941;28;20076;-82
2022/01/23 08:57:09;;;;;;;14.98;9.00;;;5.80;99.90;;;;;;5002831;28;20045;-82
2022/01/23 08:59:35;;;;;;;16.48;9.40;;;5.80;99.90;;;;;;5020324;28;20090;-82
2022/01/23 09:02:01;;;;;;;16.25;8.88;;;5.80;99.90;;;;;;5015875;28;20049;-82
2022/01/23 09:04:26;;;;;;;16.55;8.95;;;5.90;99.90;;;;;;5016079;28;20037;-82
2022/01/23 09:06:52;;;;;;;14.90;9.02;;;5.90;99.90;;;;;;5001997;28;20051;-82
2022/01/23 09:09:23;;;;;;;16.33;9.35;;;5.90;99.90;;;;;;4996583;28;20120;-82
2022/01/23 09:14:24;;;;;;;13.25;7.82;;;6.00;99.90;;;;;;5034940;28;20432;-82
2022/01/23 09:16:52;;;;;;;14.13;8.48;;;6.00;99.90;;;;;;5034353;28;20050;-82
2022/01/23 09:19:20;;;;;;;13.93;9.40;;;6.10;99.90;;;;;;5029350;28;20480;-82
2022/01/23 09:21:49;;;;;;;14.60;10.23;;;6.10;99.90;;;;;;5034177;28;20037;-82
2022/01/23 09:24:16;;;;;;;15.88;10.07;;;6.20;99.90;;;;;;5018683;28;20436;-82
2022/01/23 09:26:42;;;;;;;12.07;8.45;;;6.20;99.90;;;;;;5011853;28;20041;-81
2022/01/23 09:29:17;;;;;;;12.70;8.32;;;6.20;99.90;;;;;;5031751;28;20033;-82
2022/01/23 09:31:49;;;;;;;12.35;8.07;;;6.20;99.90;;;;;;5030222;28;20037;-82
2022/01/23 09:34:21;;;;;;;11.48;7.45;;;6.20;99.90;;;;;;5032097;28;20274;-82
2022/01/23 09:36:47;;;;;;;11.82;7.07;;;6.20;99.90;;;;;;5018397;28;20392;-82
2022/01/23 09:39:17;;;;;;;14.07;7.88;;;6.20;99.90;;;;;;5032194;28;20543;-82
2022/01/23 09:41:50;;;;;;;10.82;7.38;;;6.30;99.90;;;;;;5017699;28;20492;-81
2022/01/23 09:44:18;;;;;;;11.23;6.85;;;6.40;99.90;;;;;;5019121;28;20045;-81
2022/01/23 09:46:45;;;;;;;10.77;7.45;;;6.30;99.90;;;;;;5017986;28;20041;-81
2022/01/23 09:49:15;;;;;;;11.75;7.30;;;6.40;99.90;;;;;;5013078;28;20476;-82
2022/01/23 09:51:42;;;;;;;11.32;7.10;;;6.40;99.90;;;;;;5014183;28;20116;-82
2022/01/23 09:54:13;;;;;;;12.20;7.20;;;6.50;99.90;;;;;;5032141;28;20037;-82
2022/01/23 09:56:41;;;;;;;9.77;6.05;;;6.50;99.90;;;;;;5013002;28;20099;-82
2022/01/23 09:59:15;;;;;;;10.25;6.68;;;6.50;99.90;;;;;;5017178;28;20555;-81
2022/01/23 10:01:42;;;;;;;9.98;6.70;;;6.50;99.90;;;;;;5028919;28;20041;-81
2022/01/23 10:04:09;;;;;;;10.90;6.68;;;6.50;99.90;;;;;;5016699;28;20076;-81
2022/01/23 10:06:35;;;;;;;11.15;6.45;;;6.60;99.90;;;;;;5012701;28;20041;-81
2022/01/23 10:09:06;;;;;;;10.85;7.45;;;6.60;99.90;;;;;;5024082;28;20040;-82
2022/01/23 10:11:37;;;;;;;10.93;7.22;;;6.70;99.90;;;;;;5014692;28;20090;-82
2022/01/23 10:14:03;;;;;;;10.32;6.97;;;6.80;99.90;;;;;;5015955;28;20044;-81
2022/01/23 10:16:30;;;;;;;12.00;7.18;;;6.70;99.90;;;;;;5000538;28;20492;-81
2022/01/23 10:18:57;;;;;;;10.55;6.80;;;6.80;99.90;;;;;;5034940;28;20432;-81
2022/01/23 10:21:24;;;;;;;12.73;7.65;;;6.70;99.90;;;;;;5034036;28;20047;-81
2022/01/23 10:23:51;;;;;;;10.88;7.32;;;6.80;99.90;;;;;;5025123;28;20449;-81
2022/01/23 10:26:44;;;;;;;11.27;7.15;;;6.80;99.90;;;;;;5034264;28;20098;-81
2022/01/23 10:29:36;;;;;;;10.75;7.28;;;6.80;99.90;;;;;;5016026;28;20179;-81
2022/01/23 10:32:21;;;;;;;12.05;7.50;;;6.80;99.90;;;;;;5033889;28;20045;-81
2022/01/23 10:34:48;;;;;;;12.60;8.10;;;6.80;99.90;;;;;;5016531;28;20037;-81
2022/01/23 10:37:36;;;;;;;12.02;7.93;;;6.90;99.90;;;;;;5027080;28;20431;-81
2022/01/23 10:40:20;;;;;;;13.35;7.65;;;6.90;99.90;;;;;;5036707;28;20029;-81
2022/01/23 10:43:06;;;;;;;12.30;7.53;;;7.00;99.90;;;;;;5027950;28;20076;-81
2022/01/23 10:48:37;;;;;;;12.50;7.35;;;7.00;99.90;;;;;;5040970;28;20492;-81
2022/01/23 10:51:16;;;;;;;10.35;6.85;;;7.10;99.90;;;;;;5035898;28;20480;-81
2022/01/23 10:53:59;;;;;;;12.80;7.07;;;7.20;99.90;;;;;;5016325;28;20029;-81
2022/01/23 10:56:26;;;;;;;11.50;6.95;;;7.20;99.90;;;;;;5030391;28;20038;-81
2022/01/23 10:59:08;;;;;;;11.48;6.90;;;7.30;99.90;;;;;;5020198;28;20120;-81
2022/01/23 11:01:34;;;;;;;13.15;7.93;;;7.30;99.90;;;;;;5009603;28;20044;-81
2022/01/23 11:04:04;;;;;;;13.13;8.07;;;7.30;99.90;;;;;;5019138;28;20064;-81
2022/01/23 11:06:30;;;;;;;12.48;7.35;;;7.30;99.90;;;;;;5030752;28;20053;-81
2022/01/23 11:09:11;;;;;;;12.00;7.22;;;7.40;99.90;;;;;;5025587;28;20037;-81
2022/01/23 11:11:48;;;;;;;11.75;6.60;;;7.40;99.90;;;;;;5002718;28;20033;-81
2022/01/23 11:17:22;;;;;;;10.55;5.80;;;7.50;99.90;;;;;;5035797;28;20041;-81
2022/01/23 11:19:49;;;;;;;9.98;6.15;;;7.60;99.90;;;;;;5034624;28;20416;-81
2022/01/23 11:22:30;;;;;;;8.23;5.10;;;7.60;99.90;;;;;;5014793;28;20603;-81
2022/01/23 11:25:04;;;;;;;8.30;4.68;;;7.60;99.90;;;;;;5029700;28;20048;-81
2022/01/23 11:27:37;;;;;;;7.57;4.78;;;7.60;99.90;;;;;;5028827;28;20098;-81
2022/01/23 11:30:08;;;;;;;7.00;4.18;;;7.60;99.90;;;;;;5032523;28;20156;-81
2022/01/23 11:32:37;;;;;;;6.55;3.85;;;7.60;99.90;;;;;;5033139;28;20382;-81
2022/01/23 11:35:09;;;;;;;7.15;3.60;;;7.60;99.90;;;;;;5015979;28;20037;-81
2022/01/23 11:37:39;;;;;;;6.22;3.35;;;7.50;99.90;;;;;;5031766;28;20087;-81
2022/01/23 11:40:20;;;;;;;6.90;3.40;;;7.50;99.90;;;;;;5035012;28;20052;-81
2022/01/23 11:54:00;;;;;;;4.82;2.70;;;7.50;99.90;;;;;;5033462;28;20424;-82
2022/01/23 11:56:27;;;;;;;5.88;2.00;;;7.50;99.90;;;;;;5029480;28;20049;-81
2022/01/23 11:58:56;;;;;;;4.10;1.80;;;7.50;99.90;;;;;;5019553;28;20052;-81
2022/01/23 12:01:25;;;;;;;5.03;1.80;;;7.40;99.90;;;;;;5035798;28;20043;-81
2022/01/23 12:04:11;;;;;;;4.93;1.50;;;7.40;99.90;;;;;;5006338;28;20212;-81
2022/01/23 12:06:39;;;;;;;2.92;1.20;;;7.30;99.90;;;;;;5012979;28;20040;-81
2022/01/23 12:09:11;;;;;;;3.00;1.05;;;7.30;99.90;;;;;;5015204;28;20045;-81
2022/01/23 12:16:21;;;;;;;2.60;0.93;;;7.30;99.90;;;;;;5017472;28;20592;-81
2022/01/23 12:16:53;;;;;;;3.50;1.10;;;7.30;99.90;;;;;;5025439;28;20045;-82
2022/01/23 12:19:22;;;;;;;4.85;1.23;;;7.20;99.90;;;;;;5018843;28;20079;-82
2022/01/23 12:21:50;;;;;;;1.98;0.95;;;7.20;99.90;;;;;;5012493;28;20033;-82
2022/01/23 12:24:18;;;;;;;3.20;1.13;;;7.30;99.90;;;;;;5029767;28;20051;-82
2022/01/23 12:26:45;;;;;;;4.82;1.30;;;7.30;99.90;;;;;;5022265;28;20033;-81
2022/01/23 12:29:27;;;;;;;4.25;1.42;;;7.30;99.90;;;;;;5014123;28;20041;-81
2022/01/23 12:32:16;;;;;;;4.82;1.80;;;7.20;99.90;;;;;;5014999;28;20040;-81
2022/01/23 12:34:54;;;;;;;3.90;1.50;;;7.20;99.90;;;;;;5033720;28;20033;-81
2022/01/23 12:37:20;;;;;;;3.47;1.40;;;7.20;99.90;;;;;;5015712;28;20036;-81
2022/01/23 12:40:24;;;;;;;4.03;1.70;;;7.20;99.90;;;;;;5001985;28;20041;-81
2022/01/23 12:43:08;;;;;;;3.22;1.40;;;7.10;99.90;;;;;;5036677;28;20040;-81
2022/01/23 12:45:52;;;;;;;4.15;1.60;;;7.20;99.90;;;;;;5017002;28;20159;-82
2022/01/23 12:48:30;;;;;;;3.63;1.20;;;7.20;99.90;;;;;;5015412;28;20045;-82
2022/01/23 12:51:12;;;;;;;4.53;1.38;;;7.10;99.90;;;;;;5016780;28;20511;-82
2022/01/23 12:53:47;;;;;;;;;;;7.10;99.90;;;;;;5030882;28;20040;-81
2022/01/23 12:56:22;;;;;;;3.72;1.40;;;7.00;99.90;;;;;;5016597;28;19932;-81
2022/01/23 12:59:07;;;;;;;3.53;1.40;;;7.00;99.90;;;;;;5014579;28;20396;-81
2022/01/23 13:01:33;;;;;;;3.88;1.38;;;7.00;99.90;;;;;;5033864;28;20961;-81
2022/01/23 13:04:02;;;;;;;3.42;1.42;;;7.00;99.90;;;;;;5016781;28;20132;-81
2022/01/23 13:06:32;;;;;;;4.28;1.77;;;7.00;99.90;;;;;;5015691;28;20041;-81
2022/01/23 13:09:37;;;;;;;3.97;1.70;;;7.00;99.90;;;;;;5027133;28;20036;-81
2022/01/23 13:31:59;;;;;;;4.18;1.60;;;6.90;99.90;;;;;;5032210;28;20468;-81
2022/01/23 13:34:41;;;;;;;4.97;1.50;;;6.80;99.90;;;;;;4999008;28;20488;-81
2022/01/23 13:37:15;;;;;;;5.40;1.90;;;6.80;99.90;;;;;;5021938;28;20116;-81
2022/01/23 13:40:03;;;;;;;4.50;1.60;;;6.80;99.90;;;;;;5034926;28;20037;-81
2022/01/23 14:00:03;;;;;;;4.80;2.15;;;6.80;99.90;;;;;;5013515;28;20188;-81
2022/01/23 14:02:38;;;;;;;5.15;2.10;;;6.80;99.90;;;;;;5029493;28;20049;-81
2022/01/23 14:05:14;;;;;;;4.18;1.77;;;6.80;99.90;;;;;;5015704;28;20407;-81
2022/01/23 14:07:45;;;;;;;4.20;1.80;;;6.80;99.90;;;;;;5011345;28;20034;-80
2022/01/23 14:10:31;;;;;;;5.07;1.80;;;6.70;99.90;;;;;;5029904;28;20045;-81
2022/01/23 14:13:14;;;;;;;4.88;2.10;;;6.70;99.90;;;;;;5031672;28;20052;-81
2022/01/23 14:15:45;;;;;;;4.85;2.10;;;6.80;99.90;;;;;;5028860;28;20033;-81
2022/01/23 14:18:13;;;;;;;5.25;2.45;;;6.80;99.90;;;;;;5014222;28;20436;-81
2022/01/23 14:20:42;;;;;;;4.88;2.17;;;6.80;99.90;;;;;;5017046;28;20484;-81
2022/01/23 14:23:18;;;;;;;5.03;2.20;;;6.80;99.90;;;;;;5014530;28;20127;-81
2022/01/23 14:25:51;;;;;;;5.57;2.53;;;6.80;99.90;;;;;;5023938;28;20041;-81
2022/01/23 14:28:24;;;;;;;5.95;2.45;;;6.80;99.90;;;;;;5032422;28;20033;-81
2022/01/23 14:30:54;;;;;;;5.25;2.53;;;6.70;99.90;;;;;;5031280;28;20037;-81
2022/01/23 14:33:24;;;;;;;5.40;2.80;;;6.70;99.90;;;;;;5029297;28;20045;-81
2022/01/23 14:35:50;;;;;;;5.75;2.45;;;6.70;99.90;;;;;;5014182;28;20045;-81
2022/01/23 14:38:20;;;;;;;5.18;2.22;;;6.70;99.90;;;;;;5014826;28;20052;-81
2022/01/23 14:40:56;;;;;;;4.80;2.28;;;6.80;99.90;;;;;;5010614;28;20128;-81
2022/01/23 14:43:32;;;;;;;5.05;2.50;;;6.60;99.90;;;;;;5015926;28;20047;-81
2022/01/23 14:45:59;;;;;;;5.03;2.47;;;6.60;99.90;;;;;;5032480;28;20040;-81
2022/01/23 14:48:25;;;;;;;5.30;2.33;;;6.60;99.90;;;;;;5014685;28;20033;-81
2022/01/23 14:50:54;;;;;;;4.85;2.20;;;6.60;99.90;;;;;;5016944;28;20143;-81
2022/01/23 14:53:22;;;;;;;4.60;2.20;;;6.50;99.90;;;;;;5000926;28;20045;-81
2022/01/23 14:55:54;;;;;;;4.47;2.00;;;6.50;99.90;;;;;;5031376;28;20369;-81
2022/01/23 14:58:22;;;;;;;4.50;2.10;;;6.50;99.90;;;;;;5016159;28;20041;-81
2022/01/23 15:00:51;;;;;;;4.00;1.80;;;6.50;99.90;;;;;;5032882;28;20052;-81
2022/01/23 15:03:17;;;;;;;4.20;1.70;;;6.50;99.90;;;;;;5009173;28;20148;-81
2022/01/23 15:05:43;;;;;;;4.22;1.80;;;6.50;99.90;;;;;;5026897;28;20033;-81
2022/01/23 15:08:12;;;;;;;4.07;1.80;;;6.50;99.90;;;;;;5014800;28;20107;-81
2022/01/23 15:10:40;;;;;;;4.60;1.80;;;6.50;99.90;;;;;;5030016;28;20038;-81
2022/01/23 15:13:06;;;;;;;3.97;1.60;;;6.40;99.90;;;;;;5030271;28;20099;-81
2022/01/23 15:15:32;;;;;;;3.83;1.70;;;6.40;99.90;;;;;;5015755;28;20049;-81
2022/01/23 15:17:58;;;;;;;4.47;1.75;;;6.40;99.90;;;;;;5007964;28;20037;-81
2022/01/23 15:20:24;;;;;;;4.95;1.90;;;6.40;99.90;;;;;;5029444;28;20042;-81
2022/01/23 15:22:50;;;;;;;3.92;1.80;;;6.40;99.90;;;;;;5027482;28;20546;-81
2022/01/23 15:25:18;;;;;;;4.68;2.10;;;6.30;99.90;;;;;;5013857;28;20052;-81
2022/01/23 15:27:45;;;;;;;4.03;1.85;;;6.30;99.90;;;;;;5014956;28;20037;-81
2022/01/23 15:30:13;;;;;;;4.10;1.90;;;6.40;99.90;;;;;;5013642;28;20042;-81
2022/01/23 15:32:39;;;;;;;4.00;1.80;;;6.40;99.90;;;;;;5030141;28;20037;-81
2022/01/23 15:35:06;;;;;;;4.25;1.75;;;6.40;99.90;;;;;;4993969;28;20108;-81
2022/01/23 15:37:32;;;;;;;4.43;1.70;;;6.40;99.90;;;;;;5023836;28;20612;-81
2022/01/23 15:39:59;;;;;;;3.83;1.85;;;6.30;99.90;;;;;;5014595;28;20034;-82
2022/01/23 15:42:25;;;;;;;3.88;1.70;;;6.30;99.90;;;;;;5012942;28;20037;-82
2022/01/23 15:44:51;;;;;;;4.78;1.98;;;6.30;99.90;;;;;;4991190;28;20034;-82
2022/01/23 15:47:17;;;;;;;4.78;1.88;;;6.40;99.90;;;;;;5031909;28;20034;-82
2022/01/23 15:49:43;;;;;;;4.13;1.75;;;6.20;99.90;;;;;;5016084;28;20409;-82
2022/01/23 15:52:09;;;;;;;4.20;1.90;;;6.20;99.90;;;;;;5016195;28;20029;-82
2022/01/23 15:54:36;;;;;;;4.75;2.08;;;6.20;99.90;;;;;;5015988;28;20049;-82
2022/01/23 15:57:03;;;;;;;4.78;2.00;;;6.20;99.90;;;;;;5013700;28;20033;-81
2022/01/23 15:59:29;;;;;;;4.45;1.95;;;6.20;99.90;;;;;;5028919;28;20037;-81
2022/01/23 16:01:55;;;;;;;4.57;1.90;;;6.20;99.90;;;;;;5026613;28;20548;-80
2022/01/23 16:04:23;;;;;;;4.40;2.10;;;6.20;99.90;;;;;;4990479;28;20057;-81
2022/01/23 16:06:49;;;;;;;4.72;2.03;;;6.10;99.90;;;;;;5026124;28;20183;-81
2022/01/23 16:09:15;;;;;;;5.47;2.28;;;6.10;99.90;;;;;;5008165;28;20159;-81
2022/01/23 16:11:42;;;;;;;5.43;2.63;;;6.10;99.90;;;;;;4989572;28;20120;-82
2022/01/23 16:14:08;;;;;;;7.22;2.65;;;6.20;99.90;;;;;;4986372;28;20050;-81
2022/01/23 16:16:34;;;;;;;5.45;2.88;;;6.10;99.90;;;;;;4997336;28;20176;-81
2022/01/23 16:19:00;;;;;;;6.47;2.67;;;6.10;99.90;;;;;;5031982;28;20041;-81
2022/01/23 16:21:27;;;;;;;6.57;2.80;;;6.10;99.90;;;;;;4993794;28;20048;-81
2022/01/23 16:23:53;;;;;;;6.55;2.80;;;6.10;99.90;;;;;;5002301;28;20081;-81
2022/01/23 16:26:20;;;;;;;6.30;3.05;;;6.40;99.90;;;;;;5013834;28;20128;-81
2022/01/23 16:28:47;;;;;;;5.50;2.88;;;6.10;99.90;;;;;;5024759;28;20042;-81
2022/01/23 16:31:13;;;;;;;5.47;3.00;;;6.10;99.90;;;;;;4982084;28;20091;-81
2022/01/23 16:33:40;;;;;;;6.80;3.13;;;6.10;99.90;;;;;;4987406;28;20041;-81
2022/01/23 16:36:07;;;;;;;6.32;3.20;;;6.10;99.90;;;;;;4993791;28;20099;-81
2022/01/23 16:38:37;;;;;;;6.63;3.45;;;6.10;99.90;;;;;;5018411;28;20077;-81